createdAt,value
2023-05-19T00:04:33.616Z,33.41
2023-05-19T00:09:36.975Z,33.27
2023-05-19T00:14:40.342Z,33.38
2023-05-19T00:19:45.176Z,33.40
2023-05-19T00:24:48.132Z,33.44
2023-05-19T00:29:51.078Z,33.27
2023-05-19T00:34:55.265Z,33.46
2023-05-19T00:39:59.767Z,33.26
2023-05-19T00:45:02.689Z,33.30
2023-05-19T00:50:07.769Z,33.42
2023-05-19T00:55:11.134Z,33.39
2023-05-19T01:00:15.336Z,33.44
2023-05-19T01:05:19.750Z,33.40
2023-05-19T01:10:22.746Z,33.35
2023-05-19T01:15:26.782Z,33.30
2023-05-19T01:20:38.454Z,33.33
2023-05-19T01:26:06.991Z,33.52
2023-05-19T01:31:11.920Z,33.31
2023-05-19T01:36:15.673Z,33.28
2023-05-19T01:41:19.973Z,33.41
2023-05-19T01:46:25.050Z,33.31
2023-05-19T01:51:28.929Z,33.50
2023-05-19T01:56:40.240Z,33.46
2023-05-19T02:01:52.188Z,33.35
2023-05-19T02:06:59.121Z,33.43
2023-05-19T02:12:04.578Z,33.28
2023-05-19T02:17:09.947Z,33.35
2023-05-19T02:22:12.888Z,33.34
2023-05-19T02:27:15.792Z,33.31
2023-05-19T02:32:20.280Z,33.33
2023-05-19T02:37:23.872Z,33.50
2023-05-19T02:42:26.833Z,33.46
2023-05-19T02:47:31.203Z,33.46
2023-05-19T02:52:34.128Z,33.36
2023-05-19T02:57:36.989Z,33.38
2023-05-19T03:02:41.451Z,33.25
2023-05-19T03:07:44.382Z,33.43
2023-05-19T03:12:47.302Z,33.32
2023-05-19T03:17:52.056Z,33.21
2023-05-19T03:22:54.970Z,33.27
2023-05-19T03:27:58.693Z,33.29
2023-05-19T03:33:03.058Z,33.43
2023-05-19T03:38:05.972Z,33.33
2023-05-19T03:43:08.872Z,33.52
2023-05-19T03:48:15.857Z,33.29
2023-05-19T03:53:18.773Z,33.30
2023-05-19T03:58:21.647Z,33.42
2023-05-19T04:03:26.776Z,33.50
2023-05-19T04:08:29.703Z,33.55
2023-05-19T04:13:34.138Z,33.48
2023-05-19T04:18:38.413Z,33.64
2023-05-19T04:23:41.674Z,33.39
2023-05-19T04:28:44.748Z,33.37
2023-05-19T04:33:49.768Z,33.51
2023-05-19T04:38:54.860Z,33.49
2023-05-19T04:43:58.352Z,33.54
2023-05-19T04:49:03.084Z,33.52
2023-05-19T04:54:06.350Z,33.63
2023-05-19T04:59:09.881Z,33.41
2023-05-19T05:04:15.433Z,33.46
2023-05-19T05:09:19.808Z,33.43
2023-05-19T05:14:23.188Z,33.66
2023-05-19T05:19:28.163Z,33.55
2023-05-19T05:24:31.995Z,33.61
2023-05-19T05:29:35.172Z,33.60
2023-05-19T05:34:41.011Z,33.48
2023-05-19T05:39:43.906Z,33.60
2023-05-19T05:44:46.789Z,33.56
2023-05-19T05:49:53.472Z,33.40
2023-05-19T05:54:57.023Z,33.53
2023-05-19T05:59:59.881Z,33.26
2023-05-19T06:05:05.767Z,33.34
2023-05-19T06:10:09.857Z,33.37
2023-05-19T06:15:12.752Z,33.16
2023-05-19T06:20:16.985Z,33.28
2023-05-19T06:25:20.580Z,33.29
2023-05-19T06:30:23.439Z,33.20
2023-05-19T06:35:27.735Z,33.17
2023-05-19T06:40:30.974Z,33.30
2023-05-19T06:45:34.174Z,33.16
2023-05-19T06:50:38.407Z,33.17
2023-05-19T06:55:54.458Z,33.17
2023-05-19T07:01:01.413Z,33.09
2023-05-19T07:06:07.963Z,33.09
2023-05-19T07:11:12.387Z,33.18
2023-05-19T07:16:15.333Z,33.19
2023-05-19T07:21:19.575Z,34.22
2023-05-19T07:26:22.622Z,36.01
2023-05-19T07:31:25.943Z,36.28
2023-05-19T07:36:30.268Z,36.69
2023-05-19T07:41:34.266Z,36.01
2023-05-19T07:46:38.281Z,36.21
2023-05-19T07:51:42.847Z,36.06
2023-05-19T07:56:45.745Z,36.12
2023-05-19T08:01:48.915Z,36.02
2023-05-19T08:06:53.238Z,35.11
2023-05-19T08:11:56.138Z,34.94
2023-05-19T08:16:58.990Z,34.83
2023-05-19T08:22:03.638Z,34.91
2023-05-19T08:27:06.792Z,35.00
2023-05-19T08:32:11.605Z,35.14
2023-05-19T08:37:17.423Z,35.24
2023-05-19T08:42:20.306Z,35.23
2023-05-19T08:47:23.498Z,35.38
2023-05-19T08:52:34.489Z,35.14
2023-05-19T08:57:37.554Z,36.64
2023-05-19T09:02:50.609Z,34.93
2023-05-19T09:08:05.741Z,35.04
2023-05-19T09:13:08.618Z,35.01
2023-05-19T09:18:13.368Z,34.68
2023-05-19T09:23:18.579Z,34.76
2023-05-19T09:28:25.574Z,34.90
2023-05-19T09:33:29.372Z,34.96
2023-05-19T09:38:33.737Z,34.84
2023-05-19T09:43:36.801Z,35.08
2023-05-19T09:48:39.926Z,35.59
2023-05-19T09:53:47.519Z,34.44
2023-05-19T09:58:51.550Z,34.38
2023-05-19T10:03:54.661Z,34.69
2023-05-19T10:09:00.149Z,34.73
2023-05-19T10:14:03.318Z,34.31
2023-05-19T10:19:06.556Z,33.93
2023-05-19T10:24:11.641Z,33.81
2023-05-19T10:29:20.863Z,33.91
2023-05-19T10:34:34.493Z,33.75
2023-05-19T10:39:43.130Z,33.34
2023-05-19T10:44:54.732Z,33.55
2023-05-19T10:49:57.784Z,33.42
2023-05-19T10:55:02.204Z,33.70
2023-05-19T11:00:11.711Z,33.92
2023-05-19T11:05:18.017Z,33.76
2023-05-19T11:10:25.402Z,32.90
2023-05-19T11:15:28.777Z,33.08
2023-05-19T11:20:32.075Z,33.38
2023-05-19T11:25:54.727Z,33.34
2023-05-19T11:30:59.141Z,32.89
2023-05-19T11:36:02.124Z,33.17
2023-05-19T11:41:06.482Z,33.59
2023-05-19T11:46:11.361Z,33.06
2023-05-19T11:51:14.481Z,32.90
2023-05-19T11:56:18.864Z,32.83
2023-05-19T12:01:26.530Z,32.97
2023-05-19T12:06:29.808Z,32.80
2023-05-19T12:11:34.168Z,32.88
2023-05-19T12:16:37.302Z,33.14
2023-05-19T12:21:40.299Z,33.53
2023-05-19T12:26:44.619Z,33.04
2023-05-19T12:31:48.153Z,32.71
2023-05-19T12:36:51.143Z,32.63
2023-05-19T12:42:02.459Z,33.21
2023-05-19T12:47:07.046Z,33.37
2023-05-19T12:52:12.772Z,33.41
2023-05-19T12:57:18.761Z,33.05
2023-05-19T13:02:22.328Z,34.96
2023-05-19T13:07:25.220Z,33.18
2023-05-19T13:12:29.501Z,33.45
2023-05-19T13:17:32.473Z,33.20
2023-05-19T13:22:35.424Z,33.86
2023-05-19T13:27:39.711Z,34.92
2023-05-19T13:32:42.695Z,33.88
2023-05-19T13:37:46.330Z,33.88
2023-05-19T13:42:50.688Z,34.26
2023-05-19T13:47:53.670Z,33.64
2023-05-19T13:52:56.546Z,33.82
2023-05-19T13:58:00.764Z,33.85
2023-05-19T14:03:03.900Z,34.11
2023-05-19T14:08:06.910Z,33.97
2023-05-19T14:13:31.566Z,33.84
2023-05-19T14:18:37.427Z,33.56
2023-05-19T14:23:41.545Z,34.18
2023-05-19T14:28:45.828Z,34.54
2023-05-19T14:33:48.742Z,34.15
2023-05-19T14:38:51.753Z,33.77
2023-05-19T14:43:56.197Z,34.10
2023-05-19T14:48:59.083Z,34.29
2023-05-19T14:54:02.308Z,34.39
2023-05-19T14:59:06.790Z,34.14
2023-05-19T15:04:09.768Z,34.19
2023-05-19T15:09:14.543Z,34.35
2023-05-19T15:14:18.722Z,34.79
2023-05-19T15:19:21.761Z,34.58
2023-05-19T15:24:24.972Z,35.00
2023-05-19T15:29:29.422Z,34.78
2023-05-19T15:34:32.288Z,34.53
2023-05-19T15:39:35.257Z,35.05
2023-05-19T15:44:39.519Z,35.17
2023-05-19T15:49:42.546Z,35.21
2023-05-19T15:54:45.451Z,35.38
2023-05-19T15:59:49.639Z,35.30
2023-05-19T16:04:52.518Z,35.07
2023-05-19T16:09:55.485Z,35.26
2023-05-19T16:14:59.791Z,35.19
2023-05-19T16:20:02.822Z,35.04
2023-05-19T16:25:06.907Z,35.16
2023-05-19T16:30:12.185Z,35.17
2023-05-19T16:35:15.525Z,35.33
2023-05-19T16:40:19.897Z,35.21
2023-05-19T16:45:26.181Z,35.38
2023-05-19T16:50:29.100Z,35.20
2023-05-19T16:55:32.003Z,35.28
2023-05-19T17:00:36.855Z,35.50
2023-05-19T17:05:41.983Z,35.25
2023-05-19T17:10:45.395Z,35.39
2023-05-19T17:15:52.538Z,35.37
2023-05-19T17:20:55.454Z,35.31
2023-05-19T17:25:58.339Z,35.42
2023-05-19T17:31:03.167Z,35.49
2023-05-19T17:36:07.008Z,35.55
2023-05-19T17:41:10.894Z,35.76
2023-05-19T17:46:15.200Z,35.46
2023-05-19T17:51:18.370Z,35.54
2023-05-19T17:56:22.467Z,35.77
2023-05-19T18:01:27.462Z,35.79
2023-05-19T18:06:31.463Z,35.62
2023-05-19T18:11:34.404Z,35.75
2023-05-19T18:16:38.995Z,35.80
2023-05-19T18:21:42.498Z,35.71
2023-05-19T18:26:45.369Z,35.74
2023-05-19T18:31:49.887Z,35.68
2023-05-19T18:36:52.763Z,35.70
2023-05-19T18:41:55.641Z,35.65
2023-05-19T18:46:59.893Z,35.57
2023-05-19T18:52:02.749Z,35.71
2023-05-19T18:57:06.614Z,35.42
2023-05-19T19:02:11.036Z,35.68
2023-05-19T19:07:13.951Z,35.41
2023-05-19T19:12:17.803Z,35.60
2023-05-19T19:17:23.341Z,35.42
2023-05-19T19:22:26.242Z,35.43
2023-05-19T19:27:31.066Z,35.30
2023-05-19T19:32:35.338Z,35.29
2023-05-19T19:37:38.345Z,35.49
2023-05-19T19:42:41.270Z,35.43
2023-05-19T19:47:45.749Z,35.39
2023-05-19T19:52:48.735Z,35.54
2023-05-19T19:57:51.621Z,35.45
2023-05-19T20:03:04.872Z,35.58
2023-05-19T20:08:08.617Z,35.40
2023-05-19T20:13:11.506Z,35.35
2023-05-19T20:18:15.826Z,35.30
2023-05-19T20:23:18.709Z,35.47
2023-05-19T20:28:23.227Z,35.37
2023-05-19T20:33:28.492Z,35.38
2023-05-19T20:38:31.437Z,35.60
2023-05-19T20:43:34.672Z,35.77
2023-05-19T20:48:39.012Z,35.74
2023-05-19T20:53:41.910Z,35.73
2023-05-19T20:58:44.779Z,35.69
2023-05-19T21:03:49.024Z,35.88
2023-05-19T21:08:52.650Z,35.82
2023-05-19T21:13:56.175Z,35.91
2023-05-19T21:19:00.871Z,35.85
2023-05-19T21:24:03.908Z,35.78
2023-05-19T21:29:06.862Z,36.00
2023-05-19T21:34:11.060Z,35.83
2023-05-19T21:39:14.048Z,36.04
2023-05-19T21:44:16.941Z,35.87
2023-05-19T21:49:21.381Z,36.02
2023-05-19T21:54:24.235Z,35.74
2023-05-19T21:59:27.150Z,36.09
2023-05-19T22:04:32.154Z,35.94
2023-05-19T22:09:35.827Z,35.96
2023-05-19T22:14:38.687Z,35.99
2023-05-19T22:19:42.924Z,36.01
2023-05-19T22:24:45.757Z,36.05
2023-05-19T22:29:48.596Z,36.00
2023-05-19T22:34:52.933Z,36.08
2023-05-19T22:39:55.959Z,36.11
2023-05-19T22:44:58.995Z,36.09
2023-05-19T22:50:03.209Z,36.14
2023-05-19T22:55:07.239Z,36.05
2023-05-19T23:00:14.038Z,36.15
2023-05-19T23:05:18.328Z,35.96
2023-05-19T23:10:21.166Z,36.18
2023-05-19T23:15:23.990Z,36.09
2023-05-19T23:20:28.214Z,36.21
2023-05-19T23:25:32.054Z,35.94
2023-05-19T23:30:37.806Z,36.23
2023-05-19T23:35:42.042Z,36.28
2023-05-19T23:40:44.932Z,36.19
2023-05-19T23:45:48.009Z,36.31
2023-05-19T23:50:52.266Z,36.17
2023-05-19T23:55:56.461Z,36.16
